Dumont, Colorado
Current Conditions -  °F | °C
As of 11:15 PM on Wednesday 28 Jan 2015 (Local Time) from K0CO Reporting Station
Overcast Overcast  
Wind Chill: -1°   Ceiling: 200
Heat Index: 16°   Visibility: NA
Dew Point: 10°   Wind: 20mph
Humidity: 79%   Direction: 330°NNW
Pressure: 30.38"   Gusts: NA
Location:  39.76°N, 105.6°W
Report Text: K0CO 290615Z AUTO 33017KT OVC002 M09/M12 A3038 RMK AO2 PWINO
Loading
Personal Weather Stations






























Interactive Weather Map New forecast layout! Learn more

10-Day Weather Forecast

Advertisements
Track Severe Weather on mobile